createdAt,value
2016-02-20T00:00:42.464Z,20.1
2016-02-20T00:01:42.280Z,20.15
2016-02-20T00:02:42.423Z,20.2
2016-02-20T00:03:42.394Z,20.24
2016-02-20T00:04:42.241Z,20.18
2016-02-20T00:05:42.357Z,20.18
2016-02-20T00:06:42.322Z,20.23
2016-02-20T00:07:42.341Z,20.16
2016-02-20T00:08:42.296Z,20.2
2016-02-20T00:09:42.314Z,20.23
2016-02-20T00:10:42.270Z,20.2
2016-02-20T00:11:42.273Z,20.13
2016-02-20T00:12:42.229Z,20.13
2016-02-20T00:13:42.247Z,20.23
2016-02-20T00:14:42.203Z,20.13
2016-02-20T00:15:42.174Z,20.21
2016-02-20T00:16:42.177Z,20.12
2016-02-20T00:17:42.164Z,20.24
2016-02-20T00:18:42.121Z,20.24
2016-02-20T00:19:42.138Z,20.21
2016-02-20T00:20:42.094Z,20.18
2016-02-20T00:21:42.082Z,20.13
2016-02-20T00:22:42.085Z,20.13
2016-02-20T00:23:41.899Z,20.13
2016-02-20T00:24:42.043Z,20.12
2016-02-20T00:25:42.029Z,20.15
2016-02-20T00:26:41.985Z,20.18
2016-02-20T00:27:41.987Z,20.12
2016-02-20T00:28:41.960Z,20.25
2016-02-20T00:29:41.946Z,20.1
2016-02-20T00:30:41.939Z,20.15
2016-02-20T00:31:41.910Z,20.15
2016-02-20T00:32:41.913Z,20.15
2016-02-20T00:33:41.884Z,20.13
2016-02-20T00:34:41.856Z,20.13
2016-02-20T00:35:41.843Z,20.08
2016-02-20T00:36:41.845Z,20.13
2016-02-20T00:37:41.832Z,20.06
2016-02-20T00:38:41.788Z,20.12
2016-02-20T00:39:41.775Z,20.15
2016-02-20T00:40:41.763Z,20.12
2016-02-20T00:41:41.749Z,20.12
2016-02-20T00:42:41.721Z,20.15
2016-02-20T00:43:41.708Z,20.15
2016-02-20T00:44:41.695Z,20.15
2016-02-20T00:45:41.666Z,20.13
2016-02-20T00:46:41.497Z,20.15
2016-02-20T00:47:41.656Z,20.1
2016-02-20T00:48:41.628Z,20.15
2016-02-20T00:49:41.615Z,20.13
2016-02-20T00:50:41.585Z,20.09
2016-02-20T00:51:41.573Z,20.09
2016-02-20T00:52:41.560Z,20.13
2016-02-20T00:53:41.547Z,20.2
2016-02-20T00:54:41.534Z,20.12
2016-02-20T00:55:41.522Z,20.13
2016-02-20T00:56:41.493Z,20.2
2016-02-20T00:57:41.465Z,20.1
2016-02-20T00:58:41.451Z,20.13
2016-02-20T00:59:41.439Z,20.09
2016-02-20T01:00:41.425Z,20.1
2016-02-20T01:01:41.412Z,20.16
2016-02-20T01:02:41.400Z,20.13
2016-02-20T01:03:41.370Z,20.16
2016-02-20T01:04:41.359Z,20.16
2016-02-20T01:05:41.345Z,20.23
2016-02-20T01:06:41.332Z,20.15
2016-02-20T01:07:41.320Z,20.13
2016-02-20T01:08:41.291Z,20.13
2016-02-20T01:09:41.261Z,20.05
2016-02-20T01:10:41.265Z,19.9
2016-02-20T01:11:41.236Z,20.08
2016-02-20T01:12:41.224Z,20.03
2016-02-20T01:13:41.211Z,20.15
2016-02-20T01:14:41.214Z,20.12
2016-02-20T01:15:41.169Z,20.09
2016-02-20T01:16:41.140Z,20.09
2016-02-20T01:17:41.143Z,20.2
2016-02-20T01:18:41.131Z,20.25
2016-02-20T01:19:41.102Z,20.23
2016-02-20T01:20:41.088Z,20.27
2016-02-20T01:21:41.081Z,20.16
2016-02-20T01:22:41.052Z,20.21
2016-02-20T01:23:41.040Z,20.23
2016-02-20T01:24:40.871Z,20.27
2016-02-20T01:25:40.998Z,20.13
2016-02-20T01:26:40.984Z,20.2
2016-02-20T01:27:40.972Z,20.13
2016-02-20T01:28:40.959Z,20.24
2016-02-20T01:29:40.931Z,20.16
2016-02-20T01:30:40.901Z,20.18
2016-02-20T01:31:40.889Z,20.16
2016-02-20T01:32:40.892Z,20.24
2016-02-20T01:33:40.863Z,20.12
2016-02-20T01:34:40.850Z,20.16
2016-02-20T01:35:40.852Z,20.1
2016-02-20T01:36:40.808Z,20.13
2016-02-20T01:37:40.795Z,20.15
2016-02-20T01:38:40.767Z,20.18
2016-02-20T01:39:40.755Z,20.12
2016-02-20T01:40:40.742Z,20.23
2016-02-20T01:41:40.728Z,20.15
2016-02-20T01:42:40.716Z,20.18
2016-02-20T01:43:40.686Z,20.15
2016-02-20T01:44:40.674Z,20.18
2016-02-20T01:45:40.660Z,20.1
2016-02-20T01:46:40.632Z,20.09
2016-02-20T01:47:40.619Z,20.2
2016-02-20T01:48:40.622Z,20.13
2016-02-20T01:49:40.609Z,20.13
2016-02-20T01:50:40.612Z,20.09
2016-02-20T01:51:40.552Z,20.12
2016-02-20T01:52:40.539Z,20.12
2016-02-20T01:53:40.526Z,20.21
2016-02-20T01:54:40.513Z,20.16
2016-02-20T01:55:40.485Z,20.13
2016-02-20T01:56:40.471Z,20.15
2016-02-20T01:57:40.443Z,20.16
2016-02-20T01:58:40.431Z,20.18
2016-02-20T01:59:40.417Z,20.12
2016-02-20T02:00:40.420Z,20.12
2016-02-20T02:01:40.391Z,20.09
2016-02-20T02:02:40.363Z,20.13
2016-02-20T02:03:40.334Z,20.09
2016-02-20T02:04:40.319Z,20.16
2016-02-20T02:05:40.306Z,20.09
2016-02-20T02:06:40.278Z,20.13
2016-02-20T02:07:40.280Z,20.15
2016-02-20T02:08:40.266Z,20.08
2016-02-20T02:09:40.238Z,20.1
2016-02-20T02:10:40.225Z,20.2
2016-02-20T02:11:40.197Z,20.23
2016-02-20T02:12:40.184Z,20.18
2016-02-20T02:13:40.155Z,20.2
2016-02-20T02:14:40.142Z,20.23
2016-02-20T02:15:40.145Z,20.21
2016-02-20T02:16:40.116Z,20.16
2016-02-20T02:17:40.104Z,20.16
2016-02-20T02:18:40.074Z,20.18
2016-02-20T02:19:40.062Z,20.1
2016-02-20T02:20:40.033Z,20.15
2016-02-20T02:21:40.021Z,20.16
2016-02-20T02:22:40.007Z,20.12
2016-02-20T02:23:40.010Z,20.16
2016-02-20T02:24:39.982Z,20.13
2016-02-20T02:25:39.953Z,20.18
2016-02-20T02:26:39.940Z,20.12
2016-02-20T02:27:39.912Z,20.15
2016-02-20T02:28:39.898Z,20.08
2016-02-20T02:29:39.901Z,20.16
2016-02-20T02:30:39.873Z,20.12
2016-02-20T02:31:39.844Z,20.1
2016-02-20T02:32:39.847Z,20.09
2016-02-20T02:33:39.803Z,20.12
2016-02-20T02:34:39.806Z,20.1
2016-02-20T02:35:39.792Z,20.16
2016-02-20T02:36:39.780Z,20.16
2016-02-20T02:37:39.750Z,20.16
2016-02-20T02:38:39.722Z,20.16
2016-02-20T02:39:39.694Z,20.12
2016-02-20T02:40:39.696Z,20.09
2016-02-20T02:41:39.683Z,20.09
2016-02-20T02:42:39.655Z,20.1
2016-02-20T02:43:39.642Z,20.1
2016-02-20T02:44:39.630Z,20.12
2016-02-20T02:45:39.600Z,20.15
2016-02-20T02:46:39.588Z,20.15
2016-02-20T02:47:39.574Z,20.13
2016-02-20T02:48:39.546Z,20.09
2016-02-20T02:49:39.533Z,20.16
2016-02-20T02:50:39.520Z,20
2016-02-20T02:51:39.523Z,20.1
2016-02-20T02:52:39.479Z,20.02
2016-02-20T02:53:39.465Z,19.98
2016-02-20T02:54:39.438Z,20.05
2016-02-20T02:55:39.424Z,19.98
2016-02-20T02:56:39.412Z,19.98
2016-02-20T02:57:39.383Z,20.02
2016-02-20T02:58:39.370Z,20
2016-02-20T02:59:39.357Z,19.97
2016-02-20T03:00:39.345Z,20.12
2016-02-20T03:01:39.316Z,20
2016-02-20T03:02:39.303Z,19.97
2016-02-20T03:03:39.305Z,19.98
2016-02-20T03:04:39.276Z,20.12
2016-02-20T03:05:39.248Z,19.97
2016-02-20T03:06:39.235Z,20.1
2016-02-20T03:07:39.223Z,19.98
2016-02-20T03:08:39.209Z,20.02
2016-02-20T03:09:39.165Z,19.98
2016-02-20T03:10:39.167Z,20.05
2016-02-20T03:11:39.139Z,20.12
2016-02-20T03:12:39.127Z,20
2016-02-20T03:13:39.113Z,19.97
2016-02-20T03:14:39.101Z,20.03
2016-02-20T03:15:39.290Z,19.98
2016-02-20T03:16:39.044Z,20.13
2016-02-20T03:17:39.046Z,19.97
2016-02-20T03:18:39.033Z,20
2016-02-20T03:19:39.004Z,20
2016-02-20T03:20:38.976Z,19.97
2016-02-20T03:21:38.963Z,20.03
2016-02-20T03:22:38.949Z,20.02
2016-02-20T03:23:38.952Z,20.02
2016-02-20T03:24:38.769Z,19.98
2016-02-20T03:25:38.896Z,20
2016-02-20T03:26:38.883Z,20.03
2016-02-20T03:27:38.871Z,20.12
2016-02-20T03:28:38.857Z,20
2016-02-20T03:29:38.843Z,20
2016-02-20T03:30:38.816Z,20.05
2016-02-20T03:31:38.786Z,20.03
2016-02-20T03:32:38.773Z,20.05
2016-02-20T03:33:38.761Z,20.03
2016-02-20T03:34:38.779Z,20.03
2016-02-20T03:35:38.720Z,20.03
2016-02-20T03:36:38.707Z,19.97
2016-02-20T03:37:38.694Z,20.08
2016-02-20T03:38:38.681Z,20.03
2016-02-20T03:39:38.636Z,20.06
2016-02-20T03:40:38.640Z,20.02
2016-02-20T03:41:38.611Z,20.05
2016-02-20T03:42:38.598Z,19.98
2016-02-20T03:43:38.585Z,19.97
2016-02-20T03:44:38.556Z,20.02
2016-02-20T03:45:38.747Z,20.06
2016-02-20T03:46:38.577Z,20
2016-02-20T03:47:38.502Z,20
2016-02-20T03:48:38.505Z,20.03
2016-02-20T03:49:38.461Z,20.02
2016-02-20T03:50:38.447Z,19.95
2016-02-20T03:51:38.434Z,19.94
2016-02-20T03:52:38.406Z,20
2016-02-20T03:53:38.424Z,20.02
2016-02-20T03:54:38.380Z,19.98
2016-02-20T03:55:38.368Z,20.03
2016-02-20T03:56:38.354Z,20.02
2016-02-20T03:57:38.341Z,20.03
2016-02-20T03:58:38.156Z,20.06
2016-02-20T03:59:38.174Z,20.03
2016-02-20T04:00:38.287Z,20.05
2016-02-20T04:01:38.274Z,20.09
2016-02-20T04:02:38.246Z,20.06
2016-02-20T04:03:38.248Z,20.05
2016-02-20T04:04:38.204Z,20.06
2016-02-20T04:05:38.190Z,20.06
2016-02-20T04:06:38.193Z,20.12
2016-02-20T04:07:38.165Z,19.97
2016-02-20T04:08:38.153Z,20
2016-02-20T04:09:38.124Z,19.95
2016-02-20T04:10:38.095Z,20.03
2016-02-20T04:11:38.098Z,20.06
2016-02-20T04:12:38.069Z,20.02
2016-02-20T04:13:38.056Z,20.09
2016-02-20T04:14:38.075Z,20
2016-02-20T04:15:38.014Z,20.02
2016-02-20T04:16:38.002Z,20.06
2016-02-20T04:17:37.973Z,19.95
2016-02-20T04:18:37.961Z,20.02
2016-02-20T04:19:37.947Z,20.05
2016-02-20T04:20:37.919Z,20
2016-02-20T04:21:37.906Z,20.02
2016-02-20T04:22:37.893Z,20.02
2016-02-20T04:23:37.896Z,20.06
2016-02-20T04:24:37.867Z,19.98
2016-02-20T04:25:37.854Z,20.06
2016-02-20T04:26:37.826Z,20.09
2016-02-20T04:27:37.796Z,20.08
2016-02-20T04:28:37.785Z,19.97
2016-02-20T04:29:37.787Z,19.93
2016-02-20T04:30:37.743Z,20.06
2016-02-20T04:31:37.729Z,20.06
2016-02-20T04:32:37.717Z,19.95
2016-02-20T04:33:37.688Z,20.05
2016-02-20T04:34:37.676Z,20.03
2016-02-20T04:35:37.662Z,20.03
2016-02-20T04:36:37.665Z,19.98
2016-02-20T04:37:37.636Z,19.95
2016-02-20T04:38:37.609Z,20.03
2016-02-20T04:39:37.579Z,19.95
2016-02-20T04:40:37.582Z,20.05
2016-02-20T04:41:37.554Z,20.03
2016-02-20T04:42:37.525Z,19.94
2016-02-20T04:43:37.528Z,19.93
2016-02-20T04:44:37.500Z,19.94
2016-02-20T04:45:37.471Z,20.08
2016-02-20T04:46:37.489Z,20.03
2016-02-20T04:47:37.460Z,19.91
2016-02-20T04:48:37.432Z,19.97
2016-02-20T04:49:37.419Z,19.95
2016-02-20T04:50:37.391Z,20.02
2016-02-20T04:51:37.378Z,20.05
2016-02-20T04:52:37.364Z,19.93
2016-02-20T04:53:37.336Z,19.94
2016-02-20T04:54:37.322Z,20
2016-02-20T04:55:37.310Z,20.05
2016-02-20T04:56:37.297Z,19.95
2016-02-20T04:57:37.269Z,20.05
2016-02-20T04:58:37.255Z,20.05
2016-02-20T04:59:37.227Z,20.02
2016-02-20T05:00:37.230Z,20.05
2016-02-20T05:01:37.202Z,20.03
2016-02-20T05:02:37.188Z,19.93
2016-02-20T05:03:37.191Z,20.09
2016-02-20T05:04:37.163Z,20
2016-02-20T05:05:37.134Z,19.97
2016-02-20T05:06:37.121Z,20.06
2016-02-20T05:07:37.092Z,20.02
2016-02-20T05:08:37.064Z,19.94
2016-02-20T05:09:37.066Z,20.08
2016-02-20T05:10:37.037Z,20.05
2016-02-20T05:11:37.026Z,20.05
2016-02-20T05:12:37.012Z,20.03
2016-02-20T05:13:36.998Z,19.97
2016-02-20T05:14:36.971Z,20.05
2016-02-20T05:15:36.958Z,20.05
2016-02-20T05:16:36.945Z,20.09
2016-02-20T05:17:36.963Z,20.02
2016-02-20T05:18:36.903Z,19.94
2016-02-20T05:19:36.875Z,20.06
2016-02-20T05:20:36.877Z,20.02
2016-02-20T05:21:36.850Z,20.06
2016-02-20T05:22:36.836Z,20.05
2016-02-20T05:23:36.807Z,20.06
2016-02-20T05:24:36.795Z,20.06
2016-02-20T05:25:36.797Z,20.05
2016-02-20T05:26:36.753Z,20.03
2016-02-20T05:27:36.724Z,20.03
2016-02-20T05:28:36.711Z,20.03
2016-02-20T05:29:36.699Z,19.95
2016-02-20T05:30:36.701Z,20
2016-02-20T05:31:36.672Z,20.03
2016-02-20T05:32:36.660Z,20.05
2016-02-20T05:33:36.631Z,20.08
2016-02-20T05:34:36.618Z,20.06
2016-02-20T05:35:36.590Z,20
2016-02-20T05:36:36.592Z,20.06
2016-02-20T05:37:36.563Z,20.02
2016-02-20T05:38:36.551Z,19.98
2016-02-20T05:39:36.523Z,20
2016-02-20T05:40:36.509Z,20.05
2016-02-20T05:41:36.512Z,19.97
2016-02-20T05:42:36.468Z,20.08
2016-02-20T05:43:36.454Z,19.97
2016-02-20T05:44:36.442Z,20
2016-02-20T05:45:36.414Z,20.02
2016-02-20T05:46:36.400Z,20.06
2016-02-20T05:47:36.387Z,20.03
2016-02-20T05:48:36.374Z,19.94
2016-02-20T05:49:36.346Z,20
2016-02-20T05:50:36.333Z,20.02
2016-02-20T05:51:36.320Z,20.05
2016-02-20T05:52:36.292Z,20.02
2016-02-20T05:53:36.278Z,19.95
2016-02-20T05:54:36.266Z,19.98
2016-02-20T05:55:36.253Z,20.06
2016-02-20T05:56:36.225Z,19.97
2016-02-20T05:57:36.211Z,20.05
2016-02-20T05:58:36.182Z,20.05
2016-02-20T05:59:36.169Z,20.05
2016-02-20T06:00:36.157Z,19.97
2016-02-20T06:01:36.143Z,20.09
2016-02-20T06:02:36.131Z,20.05
2016-02-20T06:03:36.102Z,20.02
2016-02-20T06:04:36.590Z,20.05
2016-02-20T06:05:36.060Z,20.06
2016-02-20T06:06:36.048Z,20.05
2016-02-20T06:07:36.019Z,20.03
2016-02-20T06:08:36.006Z,20.02
2016-02-20T06:09:35.993Z,20.02
2016-02-20T06:10:35.981Z,19.95
2016-02-20T06:11:35.951Z,19.94
2016-02-20T06:12:35.955Z,19.94
2016-02-20T06:13:35.926Z,19.91
2016-02-20T06:14:35.913Z,20.05
2016-02-20T06:15:35.900Z,20.02
2016-02-20T06:16:35.872Z,19.95
2016-02-20T06:17:35.859Z,19.91
2016-02-20T06:18:35.845Z,19.98
2016-02-20T06:19:35.817Z,20.03
2016-02-20T06:20:35.804Z,20.03
2016-02-20T06:21:35.775Z,20.02
2016-02-20T06:22:35.763Z,19.97
2016-02-20T06:23:35.750Z,20.03
2016-02-20T06:24:35.722Z,20.02
2016-02-20T06:25:35.552Z,20.06
2016-02-20T06:26:35.695Z,19.91
2016-02-20T06:27:35.683Z,19.93
2016-02-20T06:28:35.654Z,19.93
2016-02-20T06:29:35.641Z,20.02
2016-02-20T06:30:35.628Z,19.98
2016-02-20T06:31:35.616Z,20.03
2016-02-20T06:32:35.586Z,19.94
2016-02-20T06:33:35.558Z,19.98
2016-02-20T06:34:35.560Z,20.03
2016-02-20T06:35:35.532Z,19.94
2016-02-20T06:36:35.518Z,20.08
2016-02-20T06:37:35.507Z,20.05
2016-02-20T06:38:35.477Z,20.02
2016-02-20T06:39:35.465Z,20
2016-02-20T06:40:35.436Z,20
2016-02-20T06:41:35.423Z,19.91
2016-02-20T06:42:35.410Z,19.95
2016-02-20T06:43:35.398Z,19.98
2016-02-20T06:44:35.369Z,20.09
2016-02-20T06:45:35.356Z,20.02
2016-02-20T06:46:35.342Z,20.05
2016-02-20T06:47:35.330Z,19.97
2016-02-20T06:48:35.301Z,19.91
2016-02-20T06:49:35.289Z,20.03
2016-02-20T06:50:35.275Z,19.98
2016-02-20T06:51:35.247Z,20.05
2016-02-20T06:52:35.234Z,20.03
2016-02-20T06:53:35.221Z,19.97
2016-02-20T06:54:35.209Z,20.08
2016-02-20T06:55:35.180Z,20.05
2016-02-20T06:56:35.167Z,20.02
2016-02-20T06:57:35.138Z,19.94
2016-02-20T06:58:35.125Z,19.91
2016-02-20T06:59:35.113Z,19.95
2016-02-20T07:00:35.083Z,19.91
2016-02-20T07:01:35.071Z,19.95
2016-02-20T07:02:35.074Z,19.97
2016-02-20T07:03:35.044Z,19.94
2016-02-20T07:04:35.016Z,19.95
2016-02-20T07:05:35.004Z,20.02
2016-02-20T07:06:34.990Z,19.94
2016-02-20T07:07:34.962Z,19.95
2016-02-20T07:08:34.948Z,19.9
2016-02-20T07:09:34.936Z,19.9
2016-02-20T07:10:34.923Z,20.02
2016-02-20T07:11:34.894Z,20.02
2016-02-20T07:12:34.898Z,19.94
2016-02-20T07:13:34.868Z,19.95
2016-02-20T07:14:34.840Z,19.98
2016-02-20T07:15:34.827Z,19.95
2016-02-20T07:16:34.814Z,19.9
2016-02-20T07:17:34.801Z,19.94
2016-02-20T07:18:34.772Z,20.03
2016-02-20T07:19:34.760Z,20.03
2016-02-20T07:20:34.747Z,20.03
2016-02-20T07:21:34.717Z,19.91
2016-02-20T07:22:34.705Z,19.97
2016-02-20T07:23:34.692Z,20.02
2016-02-20T07:24:34.664Z,20
2016-02-20T07:25:34.651Z,20.02
2016-02-20T07:26:34.638Z,20
2016-02-20T07:27:34.609Z,20.03
2016-02-20T07:28:34.596Z,20.03
2016-02-20T07:29:34.584Z,19.97
2016-02-20T07:30:34.555Z,20.08
2016-02-20T07:31:34.541Z,19.95
2016-02-20T07:32:34.529Z,19.97
2016-02-20T07:33:34.516Z,20.02
2016-02-20T07:34:34.488Z,19.91
2016-02-20T07:35:34.474Z,20.09
2016-02-20T07:36:34.447Z,20
2016-02-20T07:37:34.433Z,19.98
2016-02-20T07:38:34.420Z,19.91
2016-02-20T07:39:34.407Z,20.08
2016-02-20T07:40:34.394Z,20.05
2016-02-20T07:41:34.381Z,20.05
2016-02-20T07:42:34.353Z,20.05
2016-02-20T07:43:34.324Z,20.02
2016-02-20T07:44:34.312Z,20.06
2016-02-20T07:45:34.298Z,20.06
2016-02-20T07:46:34.270Z,20.03
2016-02-20T07:47:34.257Z,20.06
2016-02-20T07:48:34.259Z,20
2016-02-20T07:49:34.231Z,20.03
2016-02-20T07:50:34.203Z,20.02
2016-02-20T07:51:34.189Z,19.98
2016-02-20T07:52:34.161Z,20
2016-02-20T07:53:34.147Z,20.03
2016-02-20T07:54:34.151Z,20.02
2016-02-20T07:55:34.122Z,20.02
2016-02-20T07:56:34.109Z,20.08
2016-02-20T07:57:34.081Z,20.02
2016-02-20T07:58:34.067Z,19.97
2016-02-20T07:59:34.039Z,20.05
2016-02-20T08:00:34.026Z,20.05
2016-02-20T08:01:34.029Z,19.98
2016-02-20T08:02:34.000Z,20.03
2016-02-20T08:03:33.987Z,20
2016-02-20T08:04:33.959Z,19.94
2016-02-20T08:05:33.946Z,20.02
2016-02-20T08:06:33.918Z,20.05
2016-02-20T08:07:33.905Z,20.05
2016-02-20T08:08:33.891Z,20.02
2016-02-20T08:09:33.878Z,20.06
2016-02-20T08:10:33.866Z,20.02
2016-02-20T08:11:33.837Z,20.06
2016-02-20T08:12:33.809Z,20.06
2016-02-20T08:13:33.811Z,20.05
2016-02-20T08:14:33.782Z,19.98
2016-02-20T08:15:33.770Z,20.03
2016-02-20T08:16:33.772Z,20.05
2016-02-20T08:17:33.744Z,19.94
2016-02-20T08:18:33.715Z,20
2016-02-20T08:19:33.686Z,20
2016-02-20T08:20:33.673Z,20.05
2016-02-20T08:21:33.676Z,19.95
2016-02-20T08:22:33.648Z,19.97
2016-02-20T08:23:33.634Z,19.94
2016-02-20T08:24:33.606Z,20
2016-02-20T08:25:33.594Z,20.05
2016-02-20T08:26:33.564Z,19.95
2016-02-20T08:27:33.553Z,20.02
2016-02-20T08:28:33.539Z,20.02
2016-02-20T08:29:33.510Z,20.06
2016-02-20T08:30:33.497Z,20.05
2016-02-20T08:31:33.485Z,20.02
2016-02-20T08:32:33.472Z,20.05
2016-02-20T08:33:33.458Z,20.06
2016-02-20T08:34:33.430Z,20.03
2016-02-20T08:35:33.417Z,19.91
2016-02-20T08:36:33.388Z,19.93
2016-02-20T08:37:33.377Z,20.03
2016-02-20T08:38:33.361Z,20.08
2016-02-20T08:39:33.322Z,19.97
2016-02-20T08:40:33.314Z,20.08
2016-02-20T08:41:33.289Z,20.02
2016-02-20T08:42:33.249Z,20.06
2016-02-20T08:43:33.211Z,20.05
2016-02-20T08:44:33.193Z,20.02
2016-02-20T08:45:33.161Z,20.06
2016-02-20T08:46:33.174Z,19.94
2016-02-20T08:47:33.125Z,19.87
2016-02-20T08:48:33.124Z,20.05
2016-02-20T08:49:33.080Z,19.94
2016-02-20T08:50:33.065Z,20.03
2016-02-20T08:51:33.035Z,19.97
2016-02-20T08:52:33.036Z,20.06
2016-02-20T08:53:33.006Z,19.98
2016-02-20T08:54:32.993Z,20.03
2016-02-20T08:55:32.979Z,19.97
2016-02-20T08:56:32.967Z,20.02
2016-02-20T08:57:32.937Z,19.98
2016-02-20T08:58:32.924Z,19.97
2016-02-20T08:59:32.895Z,19.95
2016-02-20T09:00:32.960Z,20.03
2016-02-20T09:01:32.868Z,20.02
2016-02-20T09:02:32.856Z,20.02
2016-02-20T09:03:32.826Z,19.98
2016-02-20T09:04:32.814Z,20.05
2016-02-20T09:05:32.800Z,20
2016-02-20T09:06:32.787Z,20.03
2016-02-20T09:07:32.759Z,19.97
2016-02-20T09:08:32.747Z,20.02
2016-02-20T09:09:32.717Z,19.98
2016-02-20T09:10:32.705Z,19.95
2016-02-20T09:11:32.676Z,20.02
2016-02-20T09:12:32.663Z,20
2016-02-20T09:13:32.649Z,20.12
2016-02-20T09:14:32.653Z,19.98
2016-02-20T09:15:32.624Z,20.02
2016-02-20T09:16:32.596Z,20.05
2016-02-20T09:17:32.582Z,19.97
2016-02-20T09:18:32.554Z,20.05
2016-02-20T09:19:32.541Z,20.1
2016-02-20T09:20:32.528Z,20.06
2016-02-20T09:21:32.531Z,20.03
2016-02-20T09:22:32.502Z,20.15
2016-02-20T09:23:32.489Z,20.05
2016-02-20T09:24:32.461Z,20.1
2016-02-20T09:25:32.448Z,20.08
2016-02-20T09:26:32.419Z,20.08
2016-02-20T09:27:32.407Z,19.98
2016-02-20T09:28:32.378Z,20.05
2016-02-20T09:29:32.365Z,20.02
2016-02-20T09:30:32.368Z,20.1
2016-02-20T09:31:32.339Z,20.08
2016-02-20T09:32:32.311Z,20.1
2016-02-20T09:33:32.297Z,20.12
2016-02-20T09:34:32.300Z,20.15
2016-02-20T09:35:32.287Z,20
2016-02-20T09:36:32.243Z,20.12
2016-02-20T09:37:32.308Z,20.12
2016-02-20T09:38:32.280Z,20.15
2016-02-20T09:39:32.236Z,20.1
2016-02-20T09:40:31.550Z,20.21
2016-02-20T09:41:31.491Z,20.34
2016-02-20T09:42:32.228Z,20.46
2016-02-20T09:43:31.480Z,20.39
2016-02-20T09:44:32.202Z,20.46
2016-02-20T09:45:31.408Z,20.49
2016-02-20T09:46:32.129Z,20.47
2016-02-20T09:47:31.413Z,20.54
2016-02-20T09:48:31.432Z,20.56
2016-02-20T09:49:32.137Z,20.61
2016-02-20T09:50:31.937Z,20.62
2016-02-20T09:51:32.096Z,20.56
2016-02-20T09:52:32.052Z,20.62
2016-02-20T09:53:31.273Z,20.68
2016-02-20T09:54:31.260Z,20.66
2016-02-20T09:55:30.513Z,20.62
2016-02-20T09:56:31.953Z,20.59
2016-02-20T09:57:31.909Z,20.62
2016-02-20T09:58:31.896Z,20.69
2016-02-20T09:59:31.883Z,20.69
2016-02-20T10:00:31.855Z,20.64
2016-02-20T10:01:31.873Z,20.76
2016-02-20T10:02:31.813Z,20.64
2016-02-20T10:03:31.848Z,20.77
2016-02-20T10:04:31.897Z,20.76
2016-02-20T10:05:31.743Z,20.77
2016-02-20T10:06:31.730Z,20.69
2016-02-20T10:07:31.701Z,20.79
2016-02-20T10:08:31.688Z,20.64
2016-02-20T10:09:31.676Z,20.54
2016-02-20T10:10:31.647Z,20.61
2016-02-20T10:11:36.791Z,20.68
2016-02-20T10:12:35.262Z,20.66
2016-02-20T10:13:35.796Z,20.66
2016-02-20T10:14:33.642Z,20.56
2016-02-20T10:15:35.691Z,20.77
2016-02-20T10:16:35.616Z,20.64
2016-02-20T10:17:31.525Z,20.65
2016-02-20T10:18:31.497Z,20.65
2016-02-20T10:19:31.484Z,20.69
2016-02-20T10:20:31.486Z,20.77
2016-02-20T10:21:31.582Z,20.65
2016-02-20T10:22:31.446Z,20.68
2016-02-20T10:23:31.416Z,20.68
2016-02-20T10:24:31.418Z,20.74
2016-02-20T10:25:31.406Z,20.8
2016-02-20T10:26:31.377Z,20.79
2016-02-20T10:27:31.349Z,20.81
2016-02-20T10:28:31.337Z,19.78
2016-02-20T10:29:31.323Z,18.67
2016-02-20T10:30:31.295Z,17.85
2016-02-20T10:31:31.282Z,17.66
2016-02-20T10:32:31.284Z,17.91
2016-02-20T10:33:31.256Z,17.62
2016-02-20T10:34:31.227Z,17.7
2016-02-20T10:35:31.214Z,18.46
2016-02-20T10:36:31.201Z,18.83
2016-02-20T10:37:31.173Z,19.23
2016-02-20T10:38:31.144Z,19.54
2016-02-20T10:39:31.147Z,19.61
2016-02-20T10:40:31.134Z,19.9
2016-02-20T10:41:31.122Z,19.95
2016-02-20T10:42:31.077Z,20
2016-02-20T10:43:31.064Z,20.05
2016-02-20T10:44:31.036Z,20.1
2016-02-20T10:45:31.022Z,20.12
2016-02-20T10:46:31.010Z,20.28
2016-02-20T10:47:30.997Z,20.31
2016-02-20T10:48:30.983Z,20.31
2016-02-20T10:49:30.971Z,20.31
2016-02-20T10:50:30.958Z,20.35
2016-02-20T10:51:30.913Z,20.39
2016-02-20T10:52:30.901Z,20.35
2016-02-20T10:53:30.887Z,20.47
2016-02-20T10:54:30.859Z,20.47
2016-02-20T10:55:30.846Z,20.46
2016-02-20T10:56:30.833Z,20.41
2016-02-20T10:57:30.821Z,20.42
2016-02-20T10:58:30.807Z,20.43
2016-02-20T10:59:30.778Z,20.51
2016-02-20T11:00:30.750Z,20.53
2016-02-20T11:01:30.753Z,20.5
2016-02-20T11:02:30.724Z,20.53
2016-02-20T11:03:30.712Z,20.51
2016-02-20T11:04:30.684Z,20.51
2016-02-20T11:05:30.670Z,20.47
2016-02-20T11:06:30.657Z,20.56
2016-02-20T11:07:30.628Z,20.53
2016-02-20T11:08:30.615Z,20.56
2016-02-20T11:09:30.603Z,20.59
2016-02-20T11:10:30.589Z,20.54
2016-02-20T11:11:30.562Z,20.59
2016-02-20T11:12:30.564Z,20.64
2016-02-20T11:13:30.533Z,20.59
2016-02-20T11:14:30.504Z,20.61
2016-02-20T11:15:30.492Z,20.58
2016-02-20T11:16:30.478Z,20.54
2016-02-20T11:17:30.466Z,20.64
2016-02-20T11:18:30.437Z,20.62
2016-02-20T11:19:30.439Z,20.54
2016-02-20T11:20:30.442Z,20.59
2016-02-20T11:21:30.383Z,20.59
2016-02-20T11:22:30.385Z,20.58
2016-02-20T11:23:30.341Z,20.56
2016-02-20T11:24:30.328Z,20.64
2016-02-20T11:25:30.346Z,20.56
2016-02-20T11:26:30.302Z,20.56
2016-02-20T11:27:30.289Z,20.54
2016-02-20T11:28:30.276Z,20.58
2016-02-20T11:29:30.248Z,20.59
2016-02-20T11:30:30.422Z,20.51
2016-02-20T11:31:30.222Z,20.56
2016-02-20T11:32:30.209Z,20.59
2016-02-20T11:33:30.180Z,20.54
2016-02-20T11:34:30.168Z,20.61
2016-02-20T11:35:30.154Z,20.66
2016-02-20T11:36:30.125Z,20.61
2016-02-20T11:37:30.128Z,20.66
2016-02-20T11:38:30.100Z,20.62
2016-02-20T11:39:30.087Z,20.61
2016-02-20T11:40:30.074Z,20.56
2016-02-20T11:41:30.062Z,20.56
2016-02-20T11:42:29.892Z,20.59
2016-02-20T11:43:30.004Z,20.58
2016-02-20T11:44:29.992Z,20.53
2016-02-20T11:45:29.962Z,20.66
2016-02-20T11:46:29.964Z,20.64
2016-02-20T11:47:29.952Z,20.59
2016-02-20T11:48:29.924Z,20.59
2016-02-20T11:49:29.927Z,20.61
2016-02-20T11:50:29.883Z,20.54
2016-02-20T11:51:29.869Z,20.58
2016-02-20T11:52:29.888Z,20.59
2016-02-20T11:53:29.844Z,20.62
2016-02-20T11:54:29.830Z,20.64
2016-02-20T11:55:29.818Z,20.56
2016-02-20T11:56:29.788Z,20.62
2016-02-20T11:57:29.760Z,20.65
2016-02-20T11:58:29.763Z,20.61
2016-02-20T11:59:29.718Z,20.65
2016-02-20T12:00:29.721Z,20.69
2016-02-20T12:01:29.693Z,20.54
2016-02-20T12:02:29.680Z,20.64
2016-02-20T12:03:29.667Z,20.66
2016-02-20T12:04:29.654Z,20.64
2016-02-20T12:05:29.641Z,20.62
2016-02-20T12:06:29.613Z,20.59
2016-02-20T12:07:29.601Z,20.66
2016-02-20T12:08:29.571Z,20.69
2016-02-20T12:09:29.559Z,20.64
2016-02-20T12:10:29.562Z,20.81
2016-02-20T12:11:29.532Z,20.8
2016-02-20T12:12:29.503Z,20.71
2016-02-20T12:13:29.631Z,20.54
2016-02-20T12:14:29.462Z,20.64
2016-02-20T12:15:29.465Z,20.65
2016-02-20T12:16:29.436Z,20.66
2016-02-20T12:17:29.424Z,20.72
2016-02-20T12:18:29.410Z,20.56
2016-02-20T12:19:29.383Z,20.62
2016-02-20T12:20:29.385Z,20.47
2016-02-20T12:21:29.355Z,20.43
2016-02-20T12:22:29.343Z,20.34
2016-02-20T12:23:29.330Z,20.25
2016-02-20T12:24:29.302Z,20.23
2016-02-20T12:25:29.289Z,20.24
2016-02-20T12:26:29.261Z,20.09
2016-02-20T12:27:29.247Z,20.02
2016-02-20T12:28:29.235Z,20.21
2016-02-20T12:29:29.205Z,20.12
2016-02-20T12:30:29.208Z,20.15
2016-02-20T12:31:29.195Z,20.15
2016-02-20T12:32:29.167Z,20.27
2016-02-20T12:33:29.154Z,20.3
2016-02-20T12:34:29.126Z,20.28
2016-02-20T12:35:29.129Z,20.41
2016-02-20T12:36:29.085Z,20.33
2016-02-20T12:37:29.087Z,20.2
2016-02-20T12:38:29.059Z,20.21
2016-02-20T12:39:29.030Z,20.23
2016-02-20T12:40:29.032Z,20.21
2016-02-20T12:41:29.004Z,20.13
2016-02-20T12:42:29.006Z,20.18
2016-02-20T12:43:28.978Z,20.2
2016-02-20T12:44:28.950Z,20.13
2016-02-20T12:45:28.953Z,20.13
2016-02-20T12:46:28.908Z,20
2016-02-20T12:47:28.895Z,19.93
2016-02-20T12:48:28.881Z,20.05
2016-02-20T12:49:28.869Z,20.03
2016-02-20T12:50:28.872Z,20.08
2016-02-20T12:51:28.828Z,20
2016-02-20T12:52:28.830Z,20.02
2016-02-20T12:53:28.802Z,20.21
2016-02-20T12:54:28.789Z,20.34
2016-02-20T12:55:28.775Z,20.49
2016-02-20T12:56:28.747Z,20.54
2016-02-20T12:57:28.750Z,20.58